Weather observations for the past three days for
Minden Airport
Imperial (Metric)
Date Time (cdt) Wind (mph) Vis. (mi.) Weather Sky Cond. Temperature (ºF) Relative Humidity Wind Chill (°F) Heat Index (°F) Pressure Precipitation (in)
Air Dwpt 6 hour altimeter (in) sea level (mb) 1 hr 3 hr 6 hr
Max. Min.
10 07:35 Calm 10.00 Thunderstorm Light Rain in Vicinity SCT005 BKN036 OVC070 66.2 64.4 94% 30.04 0.0
10 07:15 NW 6 2.00 Thunderstorm Heavy Rain in Vicinity BKN005 OVC010 68 64.4 88% 30.04 0.0
10 06:55 Calm 10.00 Thunderstorm OVC012 68 64.4 88% 30.03 0.0
10 06:35 Calm 10.00 Thunderstorm in Vicinity OVC012 68 64.4 88% 30 0.0
10 06:15 Calm 10.00 Thunderstorm in Vicinity OVC012 68 64.4 88% 29.98 0.0
10 05:55 Calm 10.00 Overcast OVC012 68 64.4 88% 29.97 0.0
10 05:35 Calm 10.00 Overcast OVC012 68 64.4 88% 29.96 0.0
10 05:15 Calm 10.00 Overcast OVC010 68 64.4 88% 29.95 0.0
10 04:55 Calm 7.00 Overcast OVC008 68 64.4 88% 29.95 0.0
10 04:35 Calm 7.00 Overcast OVC008 68 64.4 88% 29.95 0.0
10 04:15 Calm 10.00 Overcast OVC008 68 64.4 88% 29.96 0.0
10 03:55 Calm 10.00 Overcast OVC006 68 64.4 88% 29.95 0.0
10 03:35 Calm 10.00 Overcast OVC006 66.2 62.6 88% 29.92 0.0
10 02:55 Calm 10.00 Overcast OVC004 66.2 64.4 94% 29.9 0.0
10 02:35 Calm 10.00 Overcast OVC004 66.2 62.6 88% 29.9 0.0
10 02:15 Calm 10.00 Overcast OVC004 66.2 64.4 94% 29.91 0.0
10 01:55 Calm 10.00 Overcast OVC004 66.2 62.6 88% 29.91 0.0
10 01:35 Calm 10.00 Overcast OVC004 66.2 62.6 88% 29.9 0.0
10 01:15 Calm 10.00 Overcast OVC004 66.2 62.6 88% 29.89 0.0
10 00:55 Calm 10.00 Overcast OVC004 66.2 62.6 88% 29.9 0.0
10 00:35 Calm 10.00 Partly Cloudy SCT006 66.2 62.6 88% 29.89 0.0
10 00:15 Calm 10.00 Fair CLR 66.2 62.6 88% 29.89 0.0
09 23:55 Calm 10.00 Partly Cloudy SCT003 66.2 62.6 88% 29.9 0.0
09 23:35 Calm 7.00 Partly Cloudy SCT003 66.2 62.6 88% 29.9 0.0
09 23:15 Calm 10.00 Fair CLR 66.2 64.4 94% 29.91 0.0
09 22:55 Calm 10.00 Fair CLR 66.2 62.6 88% 29.91 0.0
09 22:35 Calm 10.00 Fair CLR 66.2 62.6 88% 29.91 0.0
09 22:15 Calm 10.00 Fair CLR 66.2 62.6 88% 29.91 0.0
09 21:55 Calm 10.00 Partly Cloudy SCT010 68 64.4 88% 29.9 0.0
09 21:35 Calm 10.00 Partly Cloudy SCT010 68 64.4 88% 29.89 0.0
09 21:15 Calm 10.00 Fair CLR 68 64.4 88% 29.88 0.0
09 20:55 E 3 10.00 Partly Cloudy SCT035 SCT050 68 64.4 88% 29.87 0.0
09 20:35 E 3 10.00 Mostly Cloudy BKN035 BKN050 69.8 64.4 83% 29.87 0.0
09 20:15 SE 6 10.00 Overcast SCT011 BKN031 OVC037 69.8 64.4 83% 29.86 0.0
09 19:56 Calm 10.00 Overcast BKN011 OVC029 69.8 64.4 83% 29.87 0.0
09 19:35 SE 5 10.00 Overcast BKN011 OVC026 69.8 64.4 83% 29.87 0.0
09 19:15 SE 7 10.00 Overcast BKN011 OVC021 71.6 64.4 78% 29.85 0.0
09 18:55 SE 5 10.00 Overcast BKN011 OVC021 71.6 64.4 78% 29.85 0.0 0.01
09 18:35 S 8 10.00 Overcast BKN009 OVC016 71.6 66.2 83% 29.84 0.0
09 18:15 SE 6 10.00 Overcast BKN009 OVC016 71.6 66.2 83% 29.84 0.0
09 17:55 SE 6 10.00 Overcast BKN009 OVC014 71.6 66.2 83% 29.84 0.0
09 17:35 SE 3 10.00 Overcast BKN009 OVC014 71.6 68 88% 29.84 0.0
09 17:15 SE 7 10.00 Overcast OVC011 73.4 68 83% 29.83 0.0
09 16:55 SE 5 10.00 Overcast SCT013 BKN020 OVC060 77 68 74% 79 29.82 0.0
09 16:35 E 6 10.00 Overcast SCT013 BKN018 OVC029 77 68 74% 79 29.83 0.0
09 16:15 SE 3 10.00 Overcast BKN015 OVC021 75.2 68 78% 76 29.83 0.0
09 15:55 Calm 10.00 Overcast BKN012 OVC019 75.2 68 78% 76 29.84 0.0
09 15:35 Calm 10.00 Overcast OVC010 73.4 68 83% 29.84 0.0
09 15:15 Calm 10.00 Overcast OVC010 75.2 68 78% 76 29.84 0.0
09 14:55 Calm 10.00 Overcast OVC008 73.4 68 83% 29.85 0.0
09 14:35 Calm 10.00 Overcast OVC008 73.4 68 83% 29.85 0.0
09 14:15 Calm 10.00 Overcast OVC008 71.6 68 88% 29.86 0.0
09 13:55 Calm 10.00 Overcast OVC006 71.6 68 88% 29.87 0.0
09 13:35 Calm 10.00 Overcast OVC006 73.4 68 83% 29.87 0.0
09 13:15 Calm 7.00 Overcast OVC006 71.6 68 88% 29.87 0.0
09 12:35 Calm 1.50 Fog/Mist OVC004 69.8 66.2 88% 29.89 0.0
09 12:15 Calm 3.00 Light Rain OVC008 69.8 66.2 88% 29.89 0.0
09 11:55 Calm 4.00 Overcast with Haze OVC008 69.8 64.4 83% 29.89 0.0
09 11:35 Calm 10.00 Overcast OVC012 69.8 64.4 83% 29.88 0.0
09 11:15 Calm 10.00 Overcast OVC012 69.8 64.4 83% 29.88 0.0
09 10:55 Calm 10.00 Overcast OVC012 69.8 64.4 83% 29.87 0.0
09 10:35 Calm 10.00 Overcast OVC012 69.8 64.4 83% 29.87 0.0
09 10:15 Calm 7.00 Overcast OVC012 69.8 64.4 83% 29.87 0.0
09 09:55 Calm 10.00 Overcast OVC012 68 62.6 83% 29.87 0.0
09 09:35 Calm 10.00 Overcast OVC012 68 62.6 83% 29.88 0.0
09 09:15 Calm 10.00 Overcast OVC012 66.2 62.6 88% 29.88 0.0
09 08:55 Calm 10.00 Overcast OVC014 64.4 62.6 94% 29.89 0.0
09 08:15 Calm 7.00 Light Rain OVC014 64.4 62.6 94% 29.88 0.0
09 07:55 Calm 10.00 Overcast OVC014 64.4 60.8 88% 29.88 0.0
09 07:35 Calm 10.00 Overcast OVC018 62.6 60.8 94% 29.87 0.0
09 07:15 Calm 10.00 Thunderstorm in Vicinity OVC020 62.6 60.8 94% 29.87 0.0
09 06:55 Calm 7.00 Overcast OVC024 62.6 60.8 94% 29.86 0.0
09 06:35 Calm 4.00 Fog/Mist BKN026 BKN040 62.6 59 88% 29.86 0.0
09 06:15 Calm 7.00 Mostly Cloudy SCT028 BKN036 BKN043 62.6 60.8 94% 29.85 0.0
09 05:55 Calm 10.00 Overcast OVC034 62.6 60.8 94% 29.85 0.0
09 05:35 Calm 4.00 Fog/Mist BKN032 BKN038 62.6 59 88% 29.85 0.0
09 05:15 Calm 5.00 Fog/Mist CLR 62.6 59 88% 29.84 0.0
09 04:35 Calm 10.00 Fair CLR 62.6 60.8 94% 29.84 0.0
09 04:15 W 5 7.00 Thunderstorm in Vicinity CLR 62.6 60.8 94% 29.84 0.0
09 03:55 Calm 10.00 Thunderstorm in Vicinity CLR 62.6 60.8 94% 29.83 0.0
09 03:35 W 3 10.00 Thunderstorm in Vicinity SCT005 SCT009 SCT110 64.4 60.8 88% 29.86 0.0
09 03:15 W 20 G 32 10.00 Thunderstorm Light Rain in Vicinity SCT005 SCT047 BKN110 64.4 62.6 94% 29.89 0.0
09 02:55 E 10 G 16 10.00 Thunderstorm Light Rain SCT003 BKN048 OVC110 64.4 62.6 94% 29.76 0.0
09 02:35 S 8 10.00 Thunderstorm Light Rain BKN003 BKN035 OVC080 66.2 64.4 94% 29.86 0.0
09 02:15 S 5 5.00 Thunderstorm Rain BKN005 BKN032 OVC080 66.2 64.4 94% 29.84 0.0
09 01:55 NW 9 3.00 Thunderstorm Heavy Rain BKN007 BKN037 OVC060 68 64.4 88% 29.87 0.0
09 01:35 Calm 10.00 Thunderstorm Light Rain SCT011 BKN023 OVC110 68 64.4 88% 29.86 0.0
09 01:15 SE 3 10.00 Thunderstorm Light Rain in Vicinity SCT009 BKN095 OVC110 68 64.4 88% 29.86 0.0
09 00:55 Calm 10.00 Thunderstorm Light Rain in Vicinity OVC007 68 64.4 88% 29.89 0.0
09 00:35 NW 3 10.00 Thunderstorm in Vicinity OVC007 68 62.6 83% 29.89 0.0
09 00:15 Calm 10.00 Thunderstorm in Vicinity OVC009 68 62.6 83% 29.86 0.0
08 23:55 S 6 10.00 Thunderstorm in Vicinity OVC009 68 62.6 83% 29.85 0.0
08 23:35 S 3 10.00 Overcast OVC009 68 62.6 83% 29.87 0.0
08 23:15 S 5 10.00 Overcast OVC011 68 62.6 83% 29.89 0.0
08 22:55 S 5 10.00 Overcast OVC011 68 62.6 83% 29.89 0.0
08 22:35 SE 5 10.00 Overcast OVC013 69.8 62.6 78% 29.88 0.0
08 22:15 SE 3 10.00 Overcast OVC015 69.8 60.8 73% 29.88 0.0
08 21:55 SE 5 10.00 Overcast OVC019 69.8 60.8 73% 29.86 0.0
08 21:35 SE 3 10.00 Overcast OVC021 69.8 60.8 73% 29.84 0.0
08 21:15 SE 5 10.00 Overcast OVC021 69.8 59 69% 29.83 0.0
08 20:55 Calm 10.00 Overcast OVC023 69.8 59 69% 29.83 0.0
08 20:35 Calm 10.00 Mostly Cloudy BKN025 69.8 59 69% 29.83 0.0
08 20:15 SE 5 10.00 Fair CLR 69.8 59 69% 29.82 0.0
08 19:55 E 3 10.00 Fair CLR 69.8 59 69% 29.8 0.0
08 19:35 SE 7 10.00 Fair CLR 71.6 57.2 61% 29.82 0.0
08 19:15 SE 6 10.00 Fair CLR 71.6 55.4 57% 29.83 0.0
08 18:55 Calm 10.00 Partly Cloudy SCT070 SCT110 73.4 53.6 50% 29.84 0.0
08 18:35 S 5 10.00 Overcast OVC070 73.4 51.8 47% 29.85 0.0
08 18:15 SE 6 10.00 Overcast OVC070 73.4 53.6 50% 29.85 0.0
08 17:55 SE 9 10.00 Partly Cloudy SCT080 77 53.6 44% 78 29.84 0.0
08 17:35 SE 8 10.00 Mostly Cloudy BKN080 77 51.8 42% 78 29.84 0.0
08 17:15 SE 3 10.00 Mostly Cloudy BKN075 BKN080 77 51.8 42% 78 29.85 0.0
08 16:55 S 6 10.00 Partly Cloudy SCT075 77 51.8 42% 78 29.85 0.0
08 16:35 E 6 10.00 Overcast BKN075 OVC085 78.8 51.8 39% 79 29.85 0.0
08 16:15 Calm 10.00 Overcast OVC075 77 50 39% 78 29.85 0.0
08 15:55 Calm 10.00 Partly Cloudy SCT075 77 50 39% 78 29.85 0.0
08 15:35 SE 6 10.00 Fair CLR 77 51.8 42% 78 29.85 0.0
08 15:15 Calm 10.00 Partly Cloudy SCT080 77 50 39% 78 29.86 0.0
08 14:55 S 3 10.00 Fair CLR 77 51.8 42% 78 29.88 0.0
08 14:35 SE 7 10.00 Fair CLR 77 51.8 42% 78 29.89 0.0
08 14:15 NE 3 10.00 Fair CLR 75.2 50 41% 78 29.89 0.0
08 13:55 Calm 10.00 Fair CLR 73.4 50 44% 29.89 0.0
08 13:35 Calm 10.00 Fair CLR 73.4 51.8 47% 29.9 0.0
08 13:15 E 6 10.00 Fair CLR 71.6 50 47% 29.91 0.0
08 12:55 E 7 10.00 Fair CLR 73.4 51.8 47% 29.92 0.0
08 12:35 SE 6 10.00 Fair CLR 73.4 51.8 47% 29.93 0.0
08 12:15 E 3 10.00 Fair CLR 71.6 51.8 50% 29.94 0.0
08 11:55 SE 3 G 9 10.00 Fair CLR 71.6 50 47% 29.97 0.0
08 11:35 SE 7 10.00 Fair CLR 69.8 51.8 53% 29.98 0.0
08 11:15 SE 8 G 18 10.00 Fair CLR 68 50 53% 29.97 0.0
08 10:55 E 6 10.00 Fair CLR 68 51.8 56% 30 0.0
08 10:35 SE 3 10.00 Fair CLR 66.2 50 56% 30.01 0.0
08 10:15 Calm 10.00 Fair CLR 66.2 51.8 60% 30.01 0.0
08 09:55 Calm 10.00 Fair CLR 64.4 51.8 64% 30.01 0.0
08 09:35 Calm 10.00 Fair CLR 62.6 50 64% 30.01 0.0
08 09:15 Calm 10.00 Fair CLR 62.6 51.8 68% 30.01 0.0
08 08:55 Calm 10.00 Fair CLR 60.8 51.8 72% 29.99 0.0
08 08:35 Calm 10.00 Fair CLR 60.8 51.8 72% 29.97 0.0
08 08:15 Calm 10.00 Fair CLR 60.8 51.8 72% 29.97 0.0
08 07:55 Calm 10.00 Fair CLR 60.8 50 68% 29.98 0.0 0.01
08 07:35 Calm 10.00 Thunderstorm in Vicinity CLR 59 50 72% 29.99 0.0 0.01
08 07:15 E 3 10.00 Partly Cloudy SCT100 57.2 51.8 82% 30 0.0
08 06:55 Calm 10.00 Light Rain SCT070 BKN100 57.2 51.8 82% 30.02 0.0
08 06:35 Calm 10.00 Mostly Cloudy BKN110 59 51.8 77% 30.01 0.0
08 06:15 E 7 10.00 Overcast SCT060 SCT090 OVC110 59 51.8 77% 29.99 0.0
08 05:55 Calm 10.00 Mostly Cloudy BKN110 59 51.8 77% 29.99 0.0
08 05:35 E 3 10.00 Mostly Cloudy BKN110 59 51.8 77% 29.97 0.0
08 05:15 SE 3 10.00 Partly Cloudy SCT120 59 51.8 77% 29.98 0.0
08 04:55 E 3 10.00 Partly Cloudy SCT120 59 51.8 77% 29.99 0.0
08 04:35 E 3 10.00 Partly Cloudy SCT120 59 51.8 77% 29.99 0.0
08 04:15 E 3 10.00 Fair CLR 59 51.8 77% 29.99 0.0
08 03:55 Calm 10.00 Fair CLR 59 50 72% 29.98 0.0
08 03:35 Calm 10.00 Fair CLR 59 51.8 77% 29.98 0.0
08 03:15 E 3 10.00 Fair CLR 59 53.6 82% 29.99 0.0
08 02:55 Calm 10.00 Fair CLR 59 53.6 82% 30 0.0
08 02:35 Calm 10.00 Fair CLR 59 53.6 82% 29.99 0.0
08 02:15 Calm 10.00 Fair CLR 59 53.6 82% 29.99 0.0
08 01:55 Calm 10.00 Fair CLR 59 53.6 82% 30 0.0 0.01
08 01:35 Calm 10.00 Fair CLR 59 53.6 82% 30 0.0 0.01
08 01:15 Calm 10.00 Fair CLR 59 53.6 82% 30 0.0
08 00:55 Calm 10.00 Fair CLR 59 53.6 82% 30 0.0
08 00:35 Calm 10.00 Fair CLR 59 53.6 82% 30 0.0
08 00:15 Calm 10.00 Fair CLR 59 53.6 82% 30 0.0
07 23:55 Calm 10.00 Fair CLR 59 53.6 82% 30 0.0
07 23:35 Calm 10.00 Fair CLR 59 53.6 82% 30 0.0
07 23:15 Calm 3.00 Fair with Haze CLR 60.8 53.6 77% 30 0.0
07 22:55 Calm 10.00 Fair CLR 60.8 55.4 83% 30.01 0.0
07 22:35 Calm 10.00 Fair CLR 60.8 55.4 83% 30.02 0.0
07 22:15 Calm 10.00 Fair CLR 60.8 55.4 83% 30.02 0.0
07 21:55 Calm 10.00 Fair CLR 60.8 55.4 83% 30 0.0
07 21:35 Calm 10.00 Fair CLR 60.8 55.4 83% 30 0.0
07 21:15 Calm 10.00 Fair CLR 60.8 55.4 83% 30 0.0
07 20:55 Calm 10.00 Fair CLR 62.6 55.4 77% 30 0.0
07 20:35 Calm 10.00 Fair CLR 62.6 55.4 77% 29.99 0.0
07 20:15 Calm 10.00 Fair CLR 62.6 55.4 77% 29.99 0.0
07 19:55 Calm 10.00 Fair CLR 64.4 53.6 68% 29.99 0.0
07 19:35 Calm 10.00 Fair CLR 64.4 55.4 73% 29.99 0.0
07 19:15 Calm 10.00 Fair CLR 66.2 53.6 64% 29.99 0.0
07 18:55 Calm 10.00 Fair CLR 68 53.6 60% 29.99 0.0
07 18:35 Calm 10.00 Fair CLR 68 51.8 56% 29.98 0.0
07 18:15 Calm 10.00 Fair CLR 68 51.8 56% 29.99 0.0
07 17:55 Calm 10.00 Fair CLR 68 51.8 56% 29.99 0.0
07 17:35 E 5 10.00 Fair CLR 69.8 50 50% 29.99 0.0
07 17:15 E 5 10.00 Fair CLR 69.8 50 50% 29.99 0.0
07 16:55 Calm 10.00 Fair CLR 69.8 50 50% 30 0.0
07 16:35 Calm 10.00 Fair CLR 69.8 50 50% 30 0.0
07 16:15 Calm 10.00 Fair CLR 69.8 50 50% 30 0.0
07 15:55 Calm 10.00 Fair CLR 69.8 48.2 46% 30 0.0
07 15:35 N 6 10.00 Fair CLR 69.8 50 50% 30.01 0.0
07 15:15 Calm 10.00 Fair CLR 69.8 48.2 46% 30.03 0.0
07 14:55 NE 5 10.00 Fair CLR 68 46.4 46% 30.03 0.0 0.01
07 14:35 NE 5 10.00 Fair CLR 68 46.4 46% 30.03 0.0 0.01
07 14:15 N 3 10.00 Fair CLR 68 44.6 43% 30.03 0.0 0.01
07 13:55 NE 7 10.00 Fair CLR 68 44.6 43% 30.04 0.0
07 13:35 N 8 10.00 Fair CLR 68 46.4 46% 30.05 0.0
07 13:15 N 7 10.00 Fair CLR 68 46.4 46% 30.05 0.0
07 12:55 N 6 10.00 Fair CLR 68 44.6 43% 30.06 0.0
07 12:35 NW 7 10.00 Fair CLR 68 46.4 46% 30.07 0.0
07 12:15 N 6 10.00 Fair CLR 64.4 46.4 52% 30.08 0.0
07 11:55 Calm 10.00 Fair CLR 64.4 46.4 52% 30.08 0.0 0.01
07 11:35 Calm 10.00 Fair CLR 64.4 44.6 49% 30.08 0.0
07 11:15 Calm 10.00 Fair CLR 62.6 44.6 52% 30.09 0.0
07 10:55 Calm 10.00 Fair CLR 62.6 44.6 52% 30.08 0.0
07 10:35 Calm 10.00 Fair CLR 60.8 44.6 55% 30.08 0.0
07 10:15 Calm 10.00 Fair CLR 60.8 44.6 55% 30.09 0.0
07 09:55 Calm 10.00 Fair CLR 60.8 46.4 59% 30.1 0.0
07 09:35 Calm 10.00 Fair CLR 59 46.4 63% 30.09 0.0
07 09:15 Calm 10.00 Fair CLR 57.2 46.4 67% 30.07 0.0
07 08:55 Calm 10.00 Fair CLR 55.4 46.4 72% 30.07 0.0
07 08:35 Calm 10.00 Fair CLR 55.4 46.4 72% 30.08 0.0
07 08:15 Calm 10.00 Fair CLR 53.6 46.4 77% 30.08 0.0
Date Time (cdt) Wind (mph) Vis. (mi.) Weather Sky Cond. Air Dwpt Max. Min. Relative Humidity Wind Chill (°F) Heat Index (°F) altimeter (in) sea level (mb) 1 hr 3 hr 6 hr
6 hour
Temperature (ºF) Pressure Precipitation (in)